Time;durP1;ratioP1;P1;durP2;ratioP2;P2;SDS_P1;SDS_P2;PMS_P1;PMS_P2;Temp;Humidity;BMP_temperature;BMP_pressure;BME280_temperature;BME280_humidity;BME280_pressure;Samples;Min_cycle;Max_cycle;Signal;HPM_P1;HPM_P2
2022/02/17 00:00:20;;;;;;;30.20;5.25;;;;;;;10.10;100.00;99195.75;5032465;28;20485;-72
2022/02/17 00:02:46;;;;;;;36.30;4.95;;;;;;;10.06;100.00;99206.66;5035999;28;20045;-72
2022/02/17 00:05:11;;;;;;;29.23;4.72;;;;;;;10.07;100.00;99182.72;5072390;28;20078;-72
2022/02/17 00:07:38;;;;;;;27.40;4.93;;;;;;;10.08;100.00;99196.81;5046484;28;20385;-69
2022/02/17 00:10:05;;;;;;;31.38;4.63;;;;;;;10.10;100.00;99171.09;5032150;28;20063;-72
2022/02/17 00:12:31;;;;;;;27.52;4.85;;;;;;;10.07;100.00;99203.06;5032697;28;20025;-72
2022/02/17 00:14:57;;;;;;;30.75;4.70;;;;;;;10.10;100.00;99123.47;5059279;28;20495;-71
2022/02/17 00:17:22;;;;;;;36.33;5.32;;;;;;;10.13;100.00;99231.72;5056526;28;20087;-68
2022/02/17 00:19:48;;;;;;;27.48;5.32;;;;;;;10.08;100.00;99253.19;5031715;28;20385;-70
2022/02/17 00:22:13;;;;;;;29.90;5.15;;;;;;;10.11;100.00;99270.66;5032208;28;20073;-71
2022/02/17 00:24:39;;;;;;;22.77;4.10;;;;;;;9.98;100.00;99257.41;5041585;28;20029;-68
2022/02/17 00:27:05;;;;;;;18.45;3.17;;;;;;;9.72;100.00;99241.53;5066917;28;20025;-71
2022/02/17 00:29:30;;;;;;;17.40;3.20;;;;;;;9.61;100.00;99273.94;5033498;28;20496;-72
2022/02/17 00:31:56;;;;;;;21.60;4.10;;;;;;;9.54;100.00;99229.53;5036063;28;20032;-72
2022/02/17 00:34:21;;;;;;;13.43;3.13;;;;;;;9.48;100.00;99268.59;5035964;28;20028;-72
2022/02/17 00:36:46;;;;;;;20.58;3.67;;;;;;;9.46;100.00;99277.59;5069442;28;20082;-71
2022/02/17 00:39:11;;;;;;;11.50;2.70;;;;;;;9.43;99.48;99314.78;5040997;28;20143;-73
2022/02/17 00:41:37;;;;;;;13.23;2.60;;;;;;;9.41;100.00;99282.31;5035887;28;20040;-71
2022/02/17 00:44:03;;;;;;;14.27;3.00;;;;;;;9.32;100.00;99281.13;5035920;28;20025;-73
2022/02/17 00:46:28;;;;;;;15.57;2.53;;;;;;;9.20;100.00;99276.66;5053840;28;20090;-71
2022/02/17 00:48:54;;;;;;;17.38;2.90;;;;;;;9.12;100.00;99271.88;5057819;28;20030;-72
2022/02/17 00:51:19;;;;;;;13.88;2.90;;;;;;;9.06;100.00;99278.38;5035547;28;20501;-73
2022/02/17 00:53:44;;;;;;;19.55;3.28;;;;;;;9.00;100.00;99281.38;5036012;28;20099;-73
2022/02/17 00:56:10;;;;;;;17.27;2.70;;;;;;;8.91;100.00;99287.25;5038054;28;20428;-74
2022/02/17 00:58:35;;;;;;;17.17;3.00;;;;;;;8.90;100.00;99304.03;5073671;28;20024;-72
2022/02/17 01:01:01;;;;;;;20.45;3.75;;;;;;;8.90;100.00;99265.31;5035857;28;20025;-69
2022/02/17 01:03:26;;;;;;;22.35;3.65;;;;;;;8.97;100.00;99311.47;5035610;28;20108;-73
2022/02/17 01:05:52;;;;;;;23.88;3.60;;;;;;;8.95;100.00;99308.09;5035381;28;20028;-71
2022/02/17 01:08:17;;;;;;;20.70;3.45;;;;;;;8.99;100.00;99309.59;5061845;28;20452;-68
2022/02/17 01:10:42;;;;;;;23.98;4.13;;;;;;;9.08;100.00;99324.03;5035792;28;20034;-71
2022/02/17 01:13:08;;;;;;;23.63;3.70;;;;;;;9.14;100.00;99318.34;5035283;28;20028;-73
2022/02/17 01:15:34;;;;;;;22.95;3.45;;;;;;;9.14;100.00;99313.06;5037847;28;20071;-75
2022/02/17 01:17:59;;;;;;;27.80;4.15;;;;;;;9.18;100.00;99334.81;5035769;28;20427;-74
2022/02/17 01:20:25;;;;;;;20.95;3.33;;;;;;;9.15;100.00;99346.44;5034878;28;20388;-74
2022/02/17 01:22:51;;;;;;;18.95;3.35;;;;;;;9.25;100.00;99345.88;5044323;28;20496;-74
2022/02/17 01:25:16;;;;;;;25.35;3.80;;;;;;;9.23;100.00;99343.31;5055170;28;20025;-74
2022/02/17 01:27:42;;;;;;;19.30;3.33;;;;;;;9.30;100.00;99375.50;5054964;28;20017;-74
2022/02/17 01:30:08;;;;;;;19.23;4.20;;;;;;;9.32;100.00;99377.09;5062032;28;20029;-74
2022/02/17 01:32:33;;;;;;;19.27;3.08;;;;;;;9.38;100.00;99365.28;5035011;28;20547;-73
2022/02/17 01:34:59;;;;;;;19.55;3.17;;;;;;;9.40;100.00;99334.31;5043872;28;20021;-72
2022/02/17 01:37:25;;;;;;;23.20;3.80;;;;;;;9.41;100.00;99341.31;5050237;28;20021;-74
2022/02/17 01:39:51;;;;;;;19.00;3.28;;;;;;;9.43;99.52;99384.31;5054546;28;20044;-74
2022/02/17 01:42:16;;;;;;;16.70;3.70;;;;;;;9.42;99.14;99363.28;5052486;28;20503;-73
2022/02/17 01:44:42;;;;;;;23.35;3.65;;;;;;;9.43;97.28;99376.41;5054607;28;20107;-73
2022/02/17 01:47:12;;;;;;;18.08;3.28;;;;;;;9.43;95.69;99375.56;5054527;28;20088;-73
2022/02/17 01:49:37;;;;;;;20.48;3.67;;;;;;;9.43;93.60;99381.69;5057206;28;20040;-75
2022/02/17 01:52:05;;;;;;;24.77;4.78;;;;;;;9.44;91.39;99351.69;5048972;28;20140;-74
2022/02/17 01:54:31;;;;;;;22.05;3.53;;;;;;;9.41;90.04;99386.22;5034699;28;20136;-73
2022/02/17 01:56:58;;;;;;;20.75;4.35;;;;;;;9.35;88.66;99382.16;5034573;28;20018;-69
2022/02/17 01:59:24;;;;;;;16.27;3.20;;;;;;;9.32;87.65;99376.22;5034601;28;20053;-74
2022/02/17 02:01:49;;;;;;;20.88;3.15;;;;;;;9.26;87.82;99411.81;5057415;28;20437;-75
2022/02/17 02:04:15;;;;;;;28.33;4.95;;;;;;;9.16;88.32;99411.53;5034291;28;20408;-75
2022/02/17 02:06:40;;;;;;;24.95;4.03;;;;;;;9.17;87.81;99431.72;5034154;28;20116;-72
2022/02/17 02:09:06;;;;;;;22.98;4.38;;;;;;;9.16;88.81;99424.72;5034383;28;20033;-74
2022/02/17 02:11:31;;;;;;;23.35;4.00;;;;;;;9.14;90.08;99437.19;5050161;28;20081;-74
2022/02/17 02:13:56;;;;;;;14.02;3.38;;;;;;;9.13;90.85;99413.50;5036395;28;20044;-73
2022/02/17 02:16:22;;;;;;;21.40;3.60;;;;;;;9.22;91.13;99412.09;5034043;28;20120;-73
2022/02/17 02:18:47;;;;;;;17.27;3.80;;;;;;;9.18;91.69;99414.06;5034379;28;20032;-74
2022/02/17 02:21:13;;;;;;;19.88;3.40;;;;;;;9.18;90.93;99449.25;5034324;28;20413;-72
2022/02/17 02:23:38;;;;;;;26.25;3.67;;;;;;;9.13;90.53;99395.88;5045866;28;20034;-72
2022/02/17 02:26:04;;;;;;;15.43;3.20;;;;;;;9.16;88.80;99442.38;5034061;28;20021;-72
2022/02/17 02:28:31;;;;;;;15.43;3.33;;;;;;;9.17;88.01;99441.44;5033660;28;20021;-74
2022/02/17 02:30:58;;;;;;;21.35;3.33;;;;;;;9.20;86.26;99494.06;5015590;28;20037;-74
2022/02/17 02:33:24;;;;;;;19.20;3.72;;;;;;;9.23;82.55;99448.97;5042052;28;20036;-71
2022/02/17 02:35:51;;;;;;;20.98;3.63;;;;;;;9.22;82.46;99451.69;5033793;28;20036;-73
2022/02/17 02:38:16;;;;;;;22.00;3.53;;;;;;;9.19;81.02;99492.34;5034445;28;20025;-74
2022/02/17 02:40:42;;;;;;;19.58;3.65;;;;;;;9.12;80.40;99528.88;5033663;28;20098;-73
2022/02/17 02:43:08;;;;;;;20.55;3.47;;;;;;;9.11;79.39;99469.06;5037423;28;20032;-73
2022/02/17 02:45:34;;;;;;;13.90;3.08;;;;;;;9.15;78.06;99562.16;5033436;28;20033;-70
2022/02/17 02:48:07;;;;;;;19.35;3.75;;;;;;;9.09;77.93;99497.38;5033529;28;20025;-70
2022/02/17 02:50:33;;;;;;;21.67;3.75;;;;;;;9.12;78.74;99544.72;5033246;28;20543;-69
2022/02/17 02:52:59;;;;;;;25.73;4.07;;;;;;;9.02;78.75;99577.88;5033255;28;20041;-70
2022/02/17 02:55:25;;;;;;;16.75;3.50;;;;;;;9.02;77.65;99562.88;5058750;28;20511;-73
2022/02/17 02:57:50;;;;;;;24.95;4.35;;;;;;;9.06;77.79;99544.22;5072932;28;20032;-73
2022/02/17 03:00:16;;;;;;;22.27;3.70;;;;;;;9.04;76.34;99591.84;5067370;28;20036;-73
2022/02/17 03:02:41;;;;;;;20.35;3.53;;;;;;;8.99;77.17;99493.56;5053216;28;20028;-72
2022/02/17 03:05:07;;;;;;;18.25;4.00;;;;;;;9.00;76.51;99622.88;5043888;28;20018;-73
2022/02/17 03:07:32;;;;;;;18.10;3.53;;;;;;;8.99;76.81;99623.81;5050467;28;20091;-73
2022/02/17 03:09:58;;;;;;;19.60;4.20;;;;;;;8.99;76.96;99573.63;5052219;28;20036;-73
2022/02/17 03:12:23;;;;;;;19.58;3.58;;;;;;;8.99;77.61;99666.06;5033199;28;20104;-72
2022/02/17 03:14:49;;;;;;;25.20;4.20;;;;;;;8.96;77.94;99583.53;5037218;28;20092;-73
2022/02/17 03:17:14;;;;;;;21.40;3.75;;;;;;;8.98;78.86;99579.00;5034412;28;20022;-73
2022/02/17 03:19:39;;;;;;;19.33;4.43;;;;;;;8.87;80.24;99634.22;5032955;28;20409;-74
2022/02/17 03:22:05;;;;;;;23.38;3.65;;;;;;;8.81;80.71;99590.53;5033012;28;20037;-72
2022/02/17 03:24:30;;;;;;;20.77;3.65;;;;;;;8.78;80.72;99612.66;5032461;28;20029;-72
2022/02/17 03:26:56;;;;;;;21.60;4.50;;;;;;;8.78;81.94;99553.75;5062567;28;20028;-71
2022/02/17 03:29:21;;;;;;;15.75;3.30;;;;;;;8.74;81.35;99605.88;5072800;28;20070;-72
2022/02/17 03:31:46;;;;;;;26.80;4.55;;;;;;;8.81;81.67;99651.25;5072705;28;20031;-74
2022/02/17 03:34:12;;;;;;;20.33;3.95;;;;;;;8.83;81.18;99621.19;5072223;28;20130;-74
2022/02/17 03:36:37;;;;;;;24.13;4.35;;;;;;;8.78;82.31;99646.16;5057920;28;20032;-70
2022/02/17 03:39:03;;;;;;;22.45;3.72;;;;;;;8.77;82.74;99644.44;5072339;28;20024;-74
2022/02/17 03:41:29;;;;;;;27.25;3.40;;;;;;;8.79;81.99;99635.50;5072394;28;20369;-73
2022/02/17 03:43:54;;;;;;;21.15;3.47;;;;;;;8.73;83.69;99622.63;5072577;28;20029;-74
2022/02/17 03:46:20;;;;;;;20.58;3.65;;;;;;;8.76;82.86;99638.31;5064514;28;20091;-73
2022/02/17 03:48:45;;;;;;;24.60;3.85;;;;;;;8.76;84.19;99663.84;5071530;28;20036;-74
2022/02/17 03:51:10;;;;;;;20.35;3.70;;;;;;;8.69;84.42;99677.38;5072340;28;20036;-73
2022/02/17 03:53:35;;;;;;;21.40;4.18;;;;;;;8.60;84.92;99680.53;5072323;28;20123;-74
2022/02/17 03:56:01;;;;;;;21.45;4.18;;;;;;;8.62;84.54;99675.16;5072163;28;20052;-71
2022/02/17 04:01:10;;;;;;;19.70;4.00;;;;;;;8.64;85.31;99687.34;5072400;28;20039;-74
2022/02/17 04:03:36;;;;;;;24.10;4.32;;;;;;;8.61;85.42;99711.28;5072319;28;20108;-74
2022/02/17 04:06:01;;;;;;;26.77;3.97;;;;;;;8.56;85.87;99707.19;5072162;28;20100;-72
2022/02/17 04:08:27;;;;;;;23.90;3.85;;;;;;;8.56;85.28;99723.88;5067283;28;20381;-72
2022/02/17 04:10:52;;;;;;;18.90;3.80;;;;;;;8.59;85.46;99712.31;5045230;28;20036;-71
2022/02/17 04:13:18;;;;;;;23.83;4.07;;;;;;;8.60;84.34;99709.56;5032414;28;20039;-73
2022/02/17 04:15:43;;;;;;;34.65;6.03;;;;;;;8.57;84.77;99722.06;5032298;28;20025;-73
2022/02/17 04:18:08;;;;;;;26.77;3.70;;;;;;;8.60;83.86;99733.31;5033191;28;20048;-69
2022/02/17 04:20:34;;;;;;;27.05;5.40;;;;;;;8.59;82.89;99755.34;5069779;28;20063;-73
2022/02/17 04:22:59;;;;;;;28.98;4.20;;;;;;;8.58;83.55;99758.97;5072216;28;20534;-70
2022/02/17 04:25:24;;;;;;;28.35;4.72;;;;;;;8.51;83.70;99774.25;5072428;28;20435;-73
2022/02/17 04:27:50;;;;;;;25.83;4.30;;;;;;;8.49;84.30;99801.66;5057476;28;20428;-71
2022/02/17 04:30:15;;;;;;;23.70;4.45;;;;;;;8.42;85.32;99785.25;5061512;28;20484;-70
2022/02/17 04:32:40;;;;;;;29.45;5.00;;;;;;;8.32;86.35;99786.69;5072574;28;20060;-73
2022/02/17 04:35:06;;;;;;;29.33;4.55;;;;;;;8.41;86.73;99777.44;5072597;28;20021;-72
2022/02/17 04:37:32;;;;;;;36.53;5.43;;;;;;;8.47;86.54;99787.69;5072618;28;20029;-72
2022/02/17 04:40:00;;;;;;;37.35;5.65;;;;;;;8.45;87.91;99792.16;5052026;28;20029;-73
2022/02/17 04:42:26;;;;;;;33.72;5.30;;;;;;;8.48;88.10;99797.31;5071639;28;20120;-72
2022/02/17 04:44:52;;;;;;;33.88;5.65;;;;;;;8.47;88.07;99819.38;5072603;28;20062;-74
2022/02/17 04:47:18;;;;;;;32.67;4.53;;;;;;;8.53;87.90;99804.06;5072125;28;20025;-74
2022/02/17 04:49:44;;;;;;;24.77;4.10;;;;;;;8.55;87.81;99811.88;5056295;28;20029;-73
2022/02/17 04:52:09;;;;;;;32.78;5.40;;;;;;;8.59;87.63;99820.50;5061806;28;20127;-72
2022/02/17 04:54:35;;;;;;;27.27;5.28;;;;;;;8.67;86.22;99808.59;5072452;28;20476;-73
2022/02/17 04:57:02;;;;;;;29.35;4.70;;;;;;;8.73;86.01;99788.94;5072274;28;20036;-73
2022/02/17 04:59:28;;;;;;;28.83;5.15;;;;;;;8.74;85.86;99834.66;5070957;28;20085;-71
2022/02/17 05:01:53;;;;;;;31.40;5.38;;;;;;;8.72;85.98;99861.16;5048413;28;20107;-74
2022/02/17 05:04:19;;;;;;;26.95;5.00;;;;;;;8.74;84.07;99839.94;5072279;28;20021;-72
2022/02/17 05:06:44;;;;;;;25.13;4.57;;;;;;;8.74;83.84;99869.81;5072382;28;20361;-73
2022/02/17 05:09:09;;;;;;;24.23;5.05;;;;;;;8.75;82.64;99873.34;5072177;28;20036;-75
2022/02/17 05:11:34;;;;;;;27.48;4.88;;;;;;;8.73;82.30;99878.66;5049459;28;20029;-72
2022/02/17 05:14:00;;;;;;;21.10;3.75;;;;;;;8.74;82.48;99903.28;5071713;28;20052;-73
2022/02/17 05:16:27;;;;;;;27.77;5.32;;;;;;;8.75;82.49;99887.38;5073149;28;20361;-74
2022/02/17 05:18:53;;;;;;;22.25;3.90;;;;;;;8.78;82.32;99896.91;5075901;28;20024;-73
2022/02/17 05:21:18;;;;;;;27.83;4.43;;;;;;;8.74;82.55;99901.50;5063103;28;20492;-74
2022/02/17 05:23:44;;;;;;;27.08;4.00;;;;;;;8.76;80.61;99920.75;5060676;28;20483;-74
2022/02/17 05:26:09;;;;;;;23.42;3.78;;;;;;;8.79;77.87;99898.63;5075778;28;20104;-69
2022/02/17 05:28:34;;;;;;;23.85;4.75;;;;;;;8.84;76.76;99913.28;5075354;28;20488;-75
2022/02/17 05:31:00;;;;;;;19.00;2.95;;;;;;;8.81;75.93;99917.84;5073075;28;20062;-74
2022/02/17 05:33:25;;;;;;;17.77;3.72;;;;;;;8.75;75.17;99937.53;5044737;28;20138;-73
2022/02/17 05:35:52;;;;;;;21.17;3.80;;;;;;;8.73;77.88;99946.47;5075418;28;20020;-73
2022/02/17 05:38:17;;;;;;;19.15;3.65;;;;;;;8.70;79.11;99944.84;5075620;28;20029;-73
2022/02/17 05:40:43;;;;;;;28.10;3.83;;;;;;;8.61;81.09;99963.78;5075537;28;20515;-73
2022/02/17 05:43:08;;;;;;;23.00;4.18;;;;;;;8.50;82.38;99962.53;5057479;28;20040;-73
2022/02/17 05:45:36;;;;;;;26.58;4.05;;;;;;;8.45;83.08;99972.44;5071829;28;20032;-73
2022/02/17 05:48:01;;;;;;;21.88;3.60;;;;;;;8.39;82.71;99990.34;5075185;28;20392;-73
2022/02/17 05:50:27;;;;;;;21.75;3.95;;;;;;;8.34;82.17;99996.69;5075102;28;20035;-73
2022/02/17 05:52:52;;;;;;;21.73;4.18;;;;;;;8.33;82.17;99991.50;5035313;28;20038;-74
2022/02/17 05:55:18;;;;;;;20.20;4.07;;;;;;;8.28;82.31;99980.31;5054079;28;20483;-73
2022/02/17 05:57:44;;;;;;;26.58;4.10;;;;;;;8.22;82.83;100012.28;5075108;28;20035;-74
2022/02/17 06:00:11;;;;;;;21.23;3.63;;;;;;;8.20;82.49;100054.56;5065418;28;20034;-74
2022/02/17 06:02:36;;;;;;;21.85;4.00;;;;;;;8.19;81.57;100018.56;5054419;28;20033;-71
2022/02/17 06:05:02;;;;;;;18.85;3.45;;;;;;;8.14;80.90;100005.56;5054763;28;20032;-73
2022/02/17 06:07:27;;;;;;;15.95;3.08;;;;;;;8.11;81.25;100003.09;5037344;28;20112;-73
2022/02/17 06:09:52;;;;;;;24.88;4.03;;;;;;;8.06;81.60;100025.31;5034739;28;20026;-73
2022/02/17 06:12:18;;;;;;;25.30;3.88;;;;;;;8.07;81.54;100027.91;5035061;28;20068;-74
2022/02/17 06:14:43;;;;;;;25.13;4.50;;;;;;;8.12;81.98;100031.19;5035127;28;20032;-74
2022/02/17 06:17:09;;;;;;;20.42;3.50;;;;;;;8.16;81.04;100037.19;5063580;28;20476;-74
2022/02/17 06:19:34;;;;;;;19.02;4.28;;;;;;;8.21;80.31;100029.91;5074502;28;20487;-74
2022/02/17 06:22:00;;;;;;;21.30;3.78;;;;;;;8.17;80.84;100031.81;5074503;28;20032;-74
2022/02/17 06:24:25;;;;;;;20.73;3.22;;;;;;;8.13;80.06;100047.84;5072647;28;20099;-73
2022/02/17 06:26:50;;;;;;;20.48;3.38;;;;;;;8.08;80.18;100055.13;5049514;28;20017;-70
2022/02/17 06:29:16;;;;;;;18.95;3.47;;;;;;;8.09;80.46;100072.66;5034070;28;20040;-73
2022/02/17 06:31:44;;;;;;;19.52;3.83;;;;;;;8.06;80.23;100060.47;5033707;28;20080;-74
2022/02/17 06:34:09;;;;;;;17.17;3.25;;;;;;;8.08;80.07;100061.28;5035127;28;20028;-74
2022/02/17 06:36:34;;;;;;;20.65;3.63;;;;;;;8.13;79.01;100092.69;5034161;28;20029;-73
2022/02/17 06:39:00;;;;;;;16.85;2.92;;;;;;;8.16;79.28;100101.31;5072722;28;20028;-74
2022/02/17 06:41:25;;;;;;;15.80;3.42;;;;;;;8.11;79.40;100120.91;5074147;28;20024;-75
2022/02/17 06:43:50;;;;;;;14.40;3.67;;;;;;;8.08;79.01;100105.22;5074158;28;20036;-75
2022/02/17 06:46:16;;;;;;;18.88;3.25;;;;;;;8.04;77.70;100112.41;5036344;28;20052;-75
2022/02/17 06:48:41;;;;;;;18.00;2.83;;;;;;;8.06;77.59;100062.25;5057170;28;20028;-72
2022/02/17 06:51:07;;;;;;;15.82;3.05;;;;;;;7.97;78.44;100127.66;5073656;28;20504;-72
2022/02/17 06:53:32;;;;;;;16.38;2.50;;;;;;;7.96;77.56;100110.13;5073789;28;20376;-70
2022/02/17 06:55:58;;;;;;;16.73;2.75;;;;;;;7.95;77.76;100140.06;5047205;28;20381;-74
2022/02/17 06:58:23;;;;;;;17.88;3.30;;;;;;;7.90;78.40;100157.00;5041179;28;20024;-75
2022/02/17 07:00:49;;;;;;;18.33;2.83;;;;;;;7.83;78.01;100157.28;5070874;28;20154;-75
2022/02/17 07:03:14;;;;;;;18.35;2.78;;;;;;;7.83;78.29;100159.06;5053698;28;20119;-76
2022/02/17 07:05:40;;;;;;;19.17;3.33;;;;;;;7.82;77.66;100154.72;5051667;28;20112;-75
2022/02/17 07:08:06;;;;;;;16.75;3.58;;;;;;;7.83;77.27;100169.63;5053737;28;20144;-76
2022/02/17 07:13:15;;;;;;;17.25;3.05;;;;;;;7.83;75.67;100183.63;5073817;28;20089;-75
2022/02/17 07:15:43;;;;;;;19.40;4.95;;;;;;;7.82;74.83;100199.53;5073455;28;20099;-74
2022/02/17 07:18:09;;;;;;;19.75;3.03;;;;;;;7.79;75.16;100195.25;5034134;28;20116;-74
2022/02/17 07:20:40;;;;;;;14.32;2.55;;;;;;;7.80;75.69;100199.59;5054840;28;20056;-76
2022/02/17 07:23:05;;;;;;;16.38;3.47;;;;;;;7.76;77.11;100197.16;5063119;28;20060;-75
2022/02/17 07:25:31;;;;;;;19.85;3.28;;;;;;;7.70;77.48;100214.09;5034502;28;20136;-75
2022/02/17 07:27:57;;;;;;;16.92;3.00;;;;;;;7.69;78.16;100222.94;5050877;28;20056;-74
2022/02/17 07:30:23;;;;;;;20.80;3.10;;;;;;;7.65;78.58;100227.47;5072633;28;20155;-75
2022/02/17 07:32:48;;;;;;;16.15;2.60;;;;;;;7.66;78.26;100246.75;5064921;28;20021;-74
2022/02/17 07:35:13;;;;;;;22.30;3.05;;;;;;;7.65;77.70;100226.63;5052958;28;20047;-75
2022/02/17 07:37:39;;;;;;;20.35;3.42;;;;;;;7.68;77.03;100248.41;5051081;28;20611;-74
2022/02/17 07:40:07;;;;;;;12.32;2.70;;;;;;;7.70;76.87;100237.81;5051666;28;20377;-73
2022/02/17 07:42:32;;;;;;;14.68;2.63;;;;;;;7.68;77.32;100256.31;5064843;28;20033;-74
2022/02/17 07:45:00;;;;;;;15.15;2.30;;;;;;;7.70;75.53;100264.19;5065888;28;20163;-74
2022/02/17 07:47:25;;;;;;;18.83;3.35;;;;;;;7.80;73.55;100260.22;5062332;28;20033;-67
2022/02/17 07:49:54;;;;;;;14.10;2.83;;;;;;;7.84;74.09;100250.41;5038786;28;20033;-74
2022/02/17 07:52:20;;;;;;;17.85;2.92;;;;;;;7.84;74.90;100246.00;5052461;28;20401;-74
2022/02/17 07:54:45;;;;;;;16.95;3.08;;;;;;;7.83;75.89;100273.25;5052435;28;20029;-74
2022/02/17 07:57:10;;;;;;;15.68;3.08;;;;;;;7.84;76.46;100279.41;5055966;28;20112;-73
2022/02/17 07:59:36;;;;;;;13.45;2.53;;;;;;;7.88;75.58;100291.53;5033259;28;20115;-75
2022/02/17 08:02:01;;;;;;;12.93;2.70;;;;;;;7.87;75.82;100287.19;5049766;28;20380;-74
2022/02/17 08:04:27;;;;;;;15.98;3.58;;;;;;;7.87;75.42;100297.72;5044743;28;20125;-76
2022/02/17 08:06:52;;;;;;;21.33;3.00;;;;;;;7.84;74.77;100313.69;5067894;28;20020;-72
2022/02/17 08:09:17;;;;;;;10.10;2.22;;;;;;;7.88;73.11;100300.28;5048905;28;20456;-74
2022/02/17 08:11:43;;;;;;;18.00;4.03;;;;;;;7.88;72.42;100329.28;5032479;28;20549;-71
2022/02/17 08:14:08;;;;;;;15.90;2.25;;;;;;;7.91;71.39;100322.19;5057246;28;20028;-74
2022/02/17 08:16:33;;;;;;;14.80;3.03;;;;;;;7.88;70.90;100326.66;5051883;28;20096;-74
2022/02/17 08:18:59;;;;;;;14.45;2.60;;;;;;;7.92;71.09;100334.44;5054968;28;20044;-73
2022/02/17 08:21:24;;;;;;;14.93;2.55;;;;;;;7.92;70.42;100348.47;5032464;28;20109;-73
2022/02/17 08:23:50;;;;;;;17.55;2.85;;;;;;;7.93;69.61;100331.75;5037805;28;20040;-72
2022/02/17 08:26:15;;;;;;;14.95;3.10;;;;;;;7.97;69.72;100343.03;5052114;28;20416;-75
2022/02/17 08:28:40;;;;;;;11.02;2.00;;;;;;;7.99;69.20;100342.03;5051299;28;20544;-74
2022/02/17 08:31:06;;;;;;;11.25;2.20;;;;;;;8.00;68.60;100359.53;5037086;28;20029;-74
2022/02/17 08:33:31;;;;;;;16.25;2.25;;;;;;;8.02;68.90;100372.69;5063250;28;20039;-74
2022/02/17 08:35:56;;;;;;;13.10;2.25;;;;;;;8.08;68.81;100364.53;5071807;28;20024;-74
2022/02/17 08:38:30;;;;;;;12.85;2.15;;;;;;;8.16;68.33;100382.66;5050437;28;20387;-74
2022/02/17 08:40:55;;;;;;;11.80;2.25;;;;;;;8.20;68.68;100387.72;5072213;28;20070;-74
2022/02/17 08:43:21;;;;;;;9.18;2.00;;;;;;;8.33;68.83;100363.47;5061153;28;20411;-75
2022/02/17 08:45:46;;;;;;;12.15;2.30;;;;;;;8.39;68.34;100391.34;5051766;28;20043;-75
2022/02/17 08:48:12;;;;;;;10.60;2.50;;;;;;;8.50;69.07;100386.50;5052031;28;20059;-70
2022/02/17 08:50:43;;;;;;;14.73;2.78;;;;;;;8.68;69.27;100391.00;5048891;28;20152;-74
2022/02/17 08:53:09;;;;;;;12.07;2.40;;;;;;;9.15;68.17;100396.84;5066316;28;20044;-71
2022/02/17 08:55:35;;;;;;;13.90;2.60;;;;;;;9.92;65.51;100400.25;5067287;28;20480;-75
2022/02/17 08:58:00;;;;;;;14.25;2.50;;;;;;;10.65;62.69;100395.72;5047557;28;20029;-74
2022/02/17 09:00:26;;;;;;;12.65;2.53;;;;;;;10.82;61.73;100389.50;5055550;28;20555;-71
2022/02/17 09:02:51;;;;;;;11.30;2.40;;;;;;;11.65;59.66;100412.44;5063082;28;20024;-71
2022/02/17 09:05:16;;;;;;;11.20;2.45;;;;;;;12.19;57.49;100425.31;5075240;28;20081;-72
2022/02/17 09:07:42;;;;;;;13.50;2.80;;;;;;;12.38;56.91;100424.22;5075267;28;20103;-72
2022/02/17 09:10:08;;;;;;;17.65;3.00;;;;;;;11.55;58.34;100429.81;5075693;28;20047;-73
2022/02/17 09:12:35;;;;;;;14.88;2.90;;;;;;;12.14;57.67;100440.66;5056193;28;20473;-70
2022/02/17 09:15:01;;;;;;;12.45;2.88;;;;;;;12.39;56.97;100455.16;5070200;28;20037;-72
2022/02/17 09:17:27;;;;;;;15.70;3.33;;;;;;;13.11;55.54;100448.16;5072450;28;20024;-74
2022/02/17 09:19:52;;;;;;;14.45;2.83;;;;;;;13.40;53.05;100448.19;5068363;28;20116;-74
2022/02/17 09:22:18;;;;;;;11.60;3.28;;;;;;;13.31;52.64;100453.19;5055269;28;20025;-72
2022/02/17 09:24:43;;;;;;;14.73;3.30;;;;;;;13.71;50.93;100454.22;5063081;28;20060;-74
2022/02/17 09:27:08;;;;;;;11.77;2.45;;;;;;;13.87;46.60;100448.72;5047115;28;20401;-74
2022/02/17 09:29:35;;;;;;;8.65;2.33;;;;;;;13.02;49.05;100479.75;5055757;28;20384;-67
2022/02/17 09:32:00;;;;;;;10.02;2.28;;;;;;;12.74;48.49;100457.53;5061204;28;20071;-66
2022/02/17 09:34:26;;;;;;;13.40;2.47;;;;;;;13.06;48.98;100468.00;5055330;28;20029;-72
2022/02/17 09:36:52;;;;;;;9.07;2.10;;;;;;;13.60;48.25;100475.31;5059442;28;20029;-72
2022/02/17 09:39:18;;;;;;;12.25;2.47;;;;;;;14.15;45.76;100492.19;5054761;28;20120;-71
2022/02/17 09:41:43;;;;;;;13.73;2.50;;;;;;;14.12;46.27;100484.41;5054656;28;20121;-71
2022/02/17 09:44:10;;;;;;;10.77;2.42;;;;;;;14.39;45.40;100487.06;5054181;28;20392;-69
2022/02/17 09:46:38;;;;;;;12.43;2.70;;;;;;;14.08;45.57;100496.22;5068439;28;20489;-72
2022/02/17 09:49:04;;;;;;;10.07;2.30;;;;;;;14.17;45.46;100503.63;5054995;28;20036;-72
2022/02/17 09:51:32;;;;;;;15.85;2.97;;;;;;;14.12;46.35;100499.53;5053801;28;20037;-68
2022/02/17 09:54:00;;;;;;;14.65;2.83;;;;;;;14.48;45.83;100503.41;5052985;28;20103;-72
2022/02/17 09:56:26;;;;;;;11.80;2.20;;;;;;;15.01;44.51;100509.59;5058027;28;20020;-66
2022/02/17 09:58:53;;;;;;;13.93;2.75;;;;;;;15.14;43.80;100511.41;5062792;28;20409;-71
2022/02/17 10:01:26;;;;;;;10.35;2.63;;;;;;;14.65;44.32;100528.94;5072577;28;20460;-71
2022/02/17 10:04:14;;;;;;;8.82;2.53;;;;;;;14.59;44.70;100536.38;5053719;28;20116;-73
2022/02/17 10:06:45;;;;;;;13.88;2.90;;;;;;;15.05;43.96;100536.88;5055332;28;20044;-71
2022/02/17 10:09:12;;;;;;;12.35;2.67;;;;;;;14.73;43.83;100538.13;5046530;28;20028;-71
2022/02/17 10:11:39;;;;;;;11.98;2.72;;;;;;;14.12;46.81;100536.81;5073919;28;20021;-73
2022/02/17 10:14:09;;;;;;;10.95;2.75;;;;;;;13.97;46.27;100567.94;5049463;28;20462;-72
2022/02/17 10:16:54;;;;;;;15.57;3.08;;;;;;;14.20;46.26;100558.47;5049910;28;20029;-73
2022/02/17 10:19:21;;;;;;;13.00;2.75;;;;;;;13.89;47.54;100563.13;5047413;28;20104;-72
2022/02/17 10:21:47;;;;;;;11.45;2.50;;;;;;;14.20;45.43;100487.41;5032361;28;20037;-73
2022/02/17 10:24:33;;;;;;;12.52;2.85;;;;;;;14.54;46.31;100558.94;5033387;28;20489;-69
2022/02/17 10:27:01;;;;;;;10.00;2.35;;;;;;;14.40;45.81;100560.69;5033795;28;20018;-71
2022/02/17 10:29:26;;;;;;;11.77;2.40;;;;;;;14.81;45.36;100582.06;5042987;28;20449;-72
2022/02/17 10:32:03;;;;;;;10.88;2.38;;;;;;;15.50;43.05;100568.50;5041795;28;20029;-73
2022/02/17 10:34:28;;;;;;;13.13;2.30;;;;;;;15.39;42.92;100559.41;5053764;28;20025;-72
2022/02/17 10:36:53;;;;;;;9.48;2.92;;;;;;;16.18;42.39;100585.94;5048228;28;20087;-73
2022/02/17 10:39:26;;;;;;;12.02;2.70;;;;;;;16.37;40.33;100593.47;5048354;28;20082;-68
2022/02/17 10:42:10;;;;;;;12.45;2.38;;;;;;;16.42;40.72;100555.72;5047250;28;20044;-67
2022/02/17 10:44:41;;;;;;;8.60;2.08;;;;;;;15.46;42.55;100615.03;5060710;28;20044;-65
2022/02/17 10:47:15;;;;;;;15.07;2.85;;;;;;;14.96;44.99;100599.72;5049016;28;20029;-66
2022/02/17 10:49:58;;;;;;;10.07;2.38;;;;;;;14.58;46.35;100603.94;5059548;28;20494;-66
2022/02/17 10:52:39;;;;;;;14.43;2.50;;;;;;;14.72;45.86;100603.06;5052354;28;20563;-72
2022/02/17 10:55:17;;;;;;;12.65;2.75;;;;;;;14.34;46.31;100613.53;5033335;28;20026;-68
2022/02/17 10:57:43;;;;;;;13.30;2.97;;;;;;;14.55;46.92;100579.28;5045277;28;20037;-68
2022/02/17 11:00:20;;;;;;;18.38;2.63;;;;;;;14.41;47.66;100606.81;5050648;28;20465;-70
2022/02/17 11:02:47;;;;;;;13.73;2.90;;;;;;;14.77;46.54;100608.09;5051453;28;20397;-71
2022/02/17 11:05:14;;;;;;;15.82;3.22;;;;;;;14.80;46.57;100569.72;5041784;28;20020;-68
2022/02/17 11:07:40;;;;;;;16.27;2.90;;;;;;;14.41;47.89;100626.34;5055731;28;20032;-72
2022/02/17 11:10:10;;;;;;;12.60;2.90;;;;;;;14.78;46.72;100630.25;5040425;28;20041;-72
2022/02/17 11:12:38;;;;;;;9.50;2.60;;;;;;;14.66;45.64;100632.78;5052878;28;20033;-70
2022/02/17 11:15:05;;;;;;;13.05;2.78;;;;;;;15.88;44.42;100642.41;5053391;28;20021;-68
2022/02/17 11:17:38;;;;;;;12.65;3.30;;;;;;;16.09;42.56;100628.47;5053328;28;20024;-72
2022/02/17 11:20:07;;;;;;;11.82;3.00;;;;;;;15.97;43.32;100633.75;5051472;28;20032;-69
2022/02/17 11:22:34;;;;;;;11.27;3.05;;;;;;;15.22;44.65;100651.28;5036637;28;20048;-69
2022/02/17 11:24:59;;;;;;;12.63;2.88;;;;;;;14.91;46.38;100666.69;5049643;28;20468;-73
2022/02/17 11:27:25;;;;;;;10.85;2.72;;;;;;;15.01;45.45;100664.28;5048853;28;20079;-67